sensor_id;sensor_type;location;lat;lon;timestamp;temperature;humidity
4922;DHT22;16625;53.624;10.106;2023-06-19T00:00:10;19.60;99.90
4922;DHT22;16625;53.624;10.106;2023-06-19T00:02:41;19.60;99.90
4922;DHT22;16625;53.624;10.106;2023-06-19T00:05:09;19.50;99.90
4922;DHT22;16625;53.624;10.106;2023-06-19T00:07:40;19.50;99.90
4922;DHT22;16625;53.624;10.106;2023-06-19T00:10:18;19.50;99.90
4922;DHT22;16625;53.624;10.106;2023-06-19T00:12:53;19.50;99.90
4922;DHT22;16625;53.624;10.106;2023-06-19T00:15:41;19.50;99.90
4922;DHT22;16625;53.624;10.106;2023-06-19T00:21:58;19.40;99.90
4922;DHT22;16625;53.624;10.106;2023-06-19T00:24:29;19.50;99.90
4922;DHT22;16625;53.624;10.106;2023-06-19T00:27:02;19.60;99.90
4922;DHT22;16625;53.624;10.106;2023-06-19T00:29:57;19.60;99.90
4922;DHT22;16625;53.624;10.106;2023-06-19T00:32:48;19.60;99.90
4922;DHT22;16625;53.624;10.106;2023-06-19T00:35:34;19.70;99.90
4922;DHT22;16625;53.624;10.106;2023-06-19T00:38:15;19.70;99.90
4922;DHT22;16625;53.624;10.106;2023-06-19T00:40:56;19.80;99.90
4922;DHT22;16625;53.624;10.106;2023-06-19T00:50:37;19.60;1.00
4922;DHT22;16625;53.624;10.106;2023-06-19T00:53:05;19.60;1.00
4922;DHT22;16625;53.624;10.106;2023-06-19T00:56:00;19.50;1.00
4922;DHT22;16625;53.624;10.106;2023-06-19T00:59:00;19.40;1.00
4922;DHT22;16625;53.624;10.106;2023-06-19T01:01:53;19.30;1.00
4922;DHT22;16625;53.624;10.106;2023-06-19T01:04:45;19.40;1.00
4922;DHT22;16625;53.624;10.106;2023-06-19T01:14:03;19.50;1.00
4922;DHT22;16625;53.624;10.106;2023-06-19T01:16:49;19.50;1.00
4922;DHT22;16625;53.624;10.106;2023-06-19T01:23:10;19.50;1.00
4922;DHT22;16625;53.624;10.106;2023-06-19T01:26:17;19.50;1.00
4922;DHT22;16625;53.624;10.106;2023-06-19T01:28:45;19.50;1.00
4922;DHT22;16625;53.624;10.106;2023-06-19T01:31:15;19.50;1.00
4922;DHT22;16625;53.624;10.106;2023-06-19T01:33:43;19.50;1.00
4922;DHT22;16625;53.624;10.106;2023-06-19T01:36:11;19.50;1.00
4922;DHT22;16625;53.624;10.106;2023-06-19T01:38:41;19.50;1.00
4922;DHT22;16625;53.624;10.106;2023-06-19T01:41:10;19.50;1.00
4922;DHT22;16625;53.624;10.106;2023-06-19T01:43:39;19.50;1.00
4922;DHT22;16625;53.624;10.106;2023-06-19T01:46:06;19.60;1.00
4922;DHT22;16625;53.624;10.106;2023-06-19T01:48:34;19.60;1.00
4922;DHT22;16625;53.624;10.106;2023-06-19T01:51:01;19.60;1.00
4922;DHT22;16625;53.624;10.106;2023-06-19T01:53:30;19.60;99.90
4922;DHT22;16625;53.624;10.106;2023-06-19T01:55:57;19.60;99.90
4922;DHT22;16625;53.624;10.106;2023-06-19T01:58:24;19.60;99.90
4922;DHT22;16625;53.624;10.106;2023-06-19T02:00:52;19.70;99.90
4922;DHT22;16625;53.624;10.106;2023-06-19T02:03:19;19.60;99.90
4922;DHT22;16625;53.624;10.106;2023-06-19T02:05:46;19.70;99.90
4922;DHT22;16625;53.624;10.106;2023-06-19T02:08:13;19.70;99.90
4922;DHT22;16625;53.624;10.106;2023-06-19T02:10:40;19.70;99.90
4922;DHT22;16625;53.624;10.106;2023-06-19T02:13:07;19.70;99.90
4922;DHT22;16625;53.624;10.106;2023-06-19T02:15:33;19.70;99.90
4922;DHT22;16625;53.624;10.106;2023-06-19T02:18:02;19.60;99.90
4922;DHT22;16625;53.624;10.106;2023-06-19T02:20:29;19.70;99.90
4922;DHT22;16625;53.624;10.106;2023-06-19T02:22:56;19.70;99.90
4922;DHT22;16625;53.624;10.106;2023-06-19T02:25:23;19.70;99.90
4922;DHT22;16625;53.624;10.106;2023-06-19T02:27:50;19.70;99.90
4922;DHT22;16625;53.624;10.106;2023-06-19T02:30:17;19.70;99.90
4922;DHT22;16625;53.624;10.106;2023-06-19T02:32:43;19.70;99.90
4922;DHT22;16625;53.624;10.106;2023-06-19T02:35:12;19.60;99.90
4922;DHT22;16625;53.624;10.106;2023-06-19T02:37:40;19.60;99.90
4922;DHT22;16625;53.624;10.106;2023-06-19T02:40:08;19.60;99.90
4922;DHT22;16625;53.624;10.106;2023-06-19T02:42:36;19.60;99.90
4922;DHT22;16625;53.624;10.106;2023-06-19T02:45:03;19.50;99.90
4922;DHT22;16625;53.624;10.106;2023-06-19T02:47:30;19.60;99.90
4922;DHT22;16625;53.624;10.106;2023-06-19T02:49:57;19.50;99.90
4922;DHT22;16625;53.624;10.106;2023-06-19T02:52:26;19.50;99.90
4922;DHT22;16625;53.624;10.106;2023-06-19T02:54:53;19.60;99.90
4922;DHT22;16625;53.624;10.106;2023-06-19T02:57:20;19.60;99.90
4922;DHT22;16625;53.624;10.106;2023-06-19T02:59:47;19.60;99.90
4922;DHT22;16625;53.624;10.106;2023-06-19T03:02:14;19.60;99.90
4922;DHT22;16625;53.624;10.106;2023-06-19T03:04:42;19.60;99.90
4922;DHT22;16625;53.624;10.106;2023-06-19T03:07:09;19.50;99.90
4922;DHT22;16625;53.624;10.106;2023-06-19T03:09:40;19.50;99.90
4922;DHT22;16625;53.624;10.106;2023-06-19T03:12:08;19.50;99.90
4922;DHT22;16625;53.624;10.106;2023-06-19T03:14:35;19.50;99.90
4922;DHT22;16625;53.624;10.106;2023-06-19T03:17:02;19.60;99.90
4922;DHT22;16625;53.624;10.106;2023-06-19T03:19:29;19.40;99.90
4922;DHT22;16625;53.624;10.106;2023-06-19T03:21:56;19.40;99.90
4922;DHT22;16625;53.624;10.106;2023-06-19T03:24:22;19.40;99.90
4922;DHT22;16625;53.624;10.106;2023-06-19T03:26:51;19.40;99.90
4922;DHT22;16625;53.624;10.106;2023-06-19T03:29:18;19.40;99.90
4922;DHT22;16625;53.624;10.106;2023-06-19T03:31:45;19.40;99.90
4922;DHT22;16625;53.624;10.106;2023-06-19T03:34:12;19.40;99.90
4922;DHT22;16625;53.624;10.106;2023-06-19T03:36:39;19.30;99.90
4922;DHT22;16625;53.624;10.106;2023-06-19T03:39:05;19.40;99.90
4922;DHT22;16625;53.624;10.106;2023-06-19T03:41:32;19.40;99.90
4922;DHT22;16625;53.624;10.106;2023-06-19T03:44:00;19.40;99.90
4922;DHT22;16625;53.624;10.106;2023-06-19T03:46:27;19.40;99.90
4922;DHT22;16625;53.624;10.106;2023-06-19T03:48:54;19.40;99.90
4922;DHT22;16625;53.624;10.106;2023-06-19T03:51:21;19.30;99.90
4922;DHT22;16625;53.624;10.106;2023-06-19T03:53:48;19.40;1.00
4922;DHT22;16625;53.624;10.106;2023-06-19T03:56:15;19.40;99.90
4922;DHT22;16625;53.624;10.106;2023-06-19T03:58:42;19.40;99.90
4922;DHT22;16625;53.624;10.106;2023-06-19T04:01:10;19.40;99.90
4922;DHT22;16625;53.624;10.106;2023-06-19T04:03:37;19.40;1.00
4922;DHT22;16625;53.624;10.106;2023-06-19T04:06:04;19.30;1.00
4922;DHT22;16625;53.624;10.106;2023-06-19T04:08:30;19.30;1.00
4922;DHT22;16625;53.624;10.106;2023-06-19T04:10:57;19.30;1.00
4922;DHT22;16625;53.624;10.106;2023-06-19T04:13:24;19.30;1.00
4922;DHT22;16625;53.624;10.106;2023-06-19T04:15:51;19.30;1.00
4922;DHT22;16625;53.624;10.106;2023-06-19T04:18:19;19.30;1.00
4922;DHT22;16625;53.624;10.106;2023-06-19T04:20:46;19.20;1.00
4922;DHT22;16625;53.624;10.106;2023-06-19T04:23:13;19.20;1.00
4922;DHT22;16625;53.624;10.106;2023-06-19T04:25:40;19.30;1.00
4922;DHT22;16625;53.624;10.106;2023-06-19T04:28:06;19.30;1.00
4922;DHT22;16625;53.624;10.106;2023-06-19T04:30:33;19.30;1.00
4922;DHT22;16625;53.624;10.106;2023-06-19T04:33:00;19.30;1.00
4922;DHT22;16625;53.624;10.106;2023-06-19T04:35:28;19.30;1.00
4922;DHT22;16625;53.624;10.106;2023-06-19T04:37:55;19.30;1.00
4922;DHT22;16625;53.624;10.106;2023-06-19T04:40:26;19.30;1.00
4922;DHT22;16625;53.624;10.106;2023-06-19T04:42:53;19.30;1.00
4922;DHT22;16625;53.624;10.106;2023-06-19T04:45:20;19.20;1.00
4922;DHT22;16625;53.624;10.106;2023-06-19T04:47:47;19.30;1.00
4922;DHT22;16625;53.624;10.106;2023-06-19T04:50:14;19.30;1.00
4922;DHT22;16625;53.624;10.106;2023-06-19T04:52:43;19.20;1.00
4922;DHT22;16625;53.624;10.106;2023-06-19T04:55:09;19.30;1.00
4922;DHT22;16625;53.624;10.106;2023-06-19T04:57:36;19.20;1.00
4922;DHT22;16625;53.624;10.106;2023-06-19T05:00:04;19.10;1.00
4922;DHT22;16625;53.624;10.106;2023-06-19T05:02:32;19.20;1.00
4922;DHT22;16625;53.624;10.106;2023-06-19T05:04:59;19.10;1.00
4922;DHT22;16625;53.624;10.106;2023-06-19T05:07:29;19.20;1.00
4922;DHT22;16625;53.624;10.106;2023-06-19T05:09:57;19.20;1.00
4922;DHT22;16625;53.624;10.106;2023-06-19T05:12:24;19.20;1.00
4922;DHT22;16625;53.624;10.106;2023-06-19T05:14:51;19.20;1.00
4922;DHT22;16625;53.624;10.106;2023-06-19T05:17:17;19.20;1.00
4922;DHT22;16625;53.624;10.106;2023-06-19T05:19:44;19.20;1.00
4922;DHT22;16625;53.624;10.106;2023-06-19T05:22:11;19.20;1.00
4922;DHT22;16625;53.624;10.106;2023-06-19T05:24:38;19.20;1.00
4922;DHT22;16625;53.624;10.106;2023-06-19T05:27:07;19.20;1.00
4922;DHT22;16625;53.624;10.106;2023-06-19T05:29:34;19.20;1.00
4922;DHT22;16625;53.624;10.106;2023-06-19T05:32:01;19.40;1.00
4922;DHT22;16625;53.624;10.106;2023-06-19T05:34:28;19.20;1.00
4922;DHT22;16625;53.624;10.106;2023-06-19T05:36:55;19.20;1.00
4922;DHT22;16625;53.624;10.106;2023-06-19T05:39:22;19.20;1.00
4922;DHT22;16625;53.624;10.106;2023-06-19T05:41:49;19.20;1.00
4922;DHT22;16625;53.624;10.106;2023-06-19T05:44:17;19.20;1.00
4922;DHT22;16625;53.624;10.106;2023-06-19T05:46:44;19.20;1.00
4922;DHT22;16625;53.624;10.106;2023-06-19T05:49:11;19.20;1.00
4922;DHT22;16625;53.624;10.106;2023-06-19T05:51:38;19.20;1.00
4922;DHT22;16625;53.624;10.106;2023-06-19T05:54:05;19.30;1.00
4922;DHT22;16625;53.624;10.106;2023-06-19T05:56:32;19.30;1.00
4922;DHT22;16625;53.624;10.106;2023-06-19T05:58:59;19.30;1.00
4922;DHT22;16625;53.624;10.106;2023-06-19T06:01:28;19.30;1.00
4922;DHT22;16625;53.624;10.106;2023-06-19T06:03:55;19.30;1.00
4922;DHT22;16625;53.624;10.106;2023-06-19T06:06:23;19.30;1.00
4922;DHT22;16625;53.624;10.106;2023-06-19T06:08:51;19.30;1.00
4922;DHT22;16625;53.624;10.106;2023-06-19T06:11:18;19.30;1.00
4922;DHT22;16625;53.624;10.106;2023-06-19T06:13:45;19.40;1.00
4922;DHT22;16625;53.624;10.106;2023-06-19T06:16:11;19.40;1.00
4922;DHT22;16625;53.624;10.106;2023-06-19T06:18:41;19.50;1.00
4922;DHT22;16625;53.624;10.106;2023-06-19T06:21:07;19.60;1.00
4922;DHT22;16625;53.624;10.106;2023-06-19T06:23:34;19.70;1.00
4922;DHT22;16625;53.624;10.106;2023-06-19T06:26:01;19.80;1.00
4922;DHT22;16625;53.624;10.106;2023-06-19T06:28:28;19.80;1.00
4922;DHT22;16625;53.624;10.106;2023-06-19T06:30:57;19.80;1.00
4922;DHT22;16625;53.624;10.106;2023-06-19T06:33:24;19.90;1.00
4922;DHT22;16625;53.624;10.106;2023-06-19T06:35:55;19.90;1.00
4922;DHT22;16625;53.624;10.106;2023-06-19T06:38:22;19.90;1.00
4922;DHT22;16625;53.624;10.106;2023-06-19T06:40:49;20.00;30.00
4922;DHT22;16625;53.624;10.106;2023-06-19T06:43:16;19.90;99.90
4922;DHT22;16625;53.624;10.106;2023-06-19T06:45:42;19.90;99.90
4922;DHT22;16625;53.624;10.106;2023-06-19T06:48:09;19.90;1.00
4922;DHT22;16625;53.624;10.106;2023-06-19T06:50:36;19.80;99.90
4922;DHT22;16625;53.624;10.106;2023-06-19T06:53:05;19.90;99.90
4922;DHT22;16625;53.624;10.106;2023-06-19T06:55:32;19.80;99.90
4922;DHT22;16625;53.624;10.106;2023-06-19T06:57:59;19.90;99.90
4922;DHT22;16625;53.624;10.106;2023-06-19T07:00:26;20.00;99.90
4922;DHT22;16625;53.624;10.106;2023-06-19T07:02:53;20.10;99.90
4922;DHT22;16625;53.624;10.106;2023-06-19T07:05:20;20.10;99.90
4922;DHT22;16625;53.624;10.106;2023-06-19T07:07:47;20.10;99.90
4922;DHT22;16625;53.624;10.106;2023-06-19T07:10:15;20.10;99.90
4922;DHT22;16625;53.624;10.106;2023-06-19T07:12:46;20.10;99.90
4922;DHT22;16625;53.624;10.106;2023-06-19T07:15:13;20.00;1.00
4922;DHT22;16625;53.624;10.106;2023-06-19T07:17:39;20.00;99.90
4922;DHT22;16625;53.624;10.106;2023-06-19T07:20:07;20.10;99.90
4922;DHT22;16625;53.624;10.106;2023-06-19T07:22:34;20.00;1.00
4922;DHT22;16625;53.624;10.106;2023-06-19T07:25:01;20.10;99.90
4922;DHT22;16625;53.624;10.106;2023-06-19T07:27:30;20.30;99.90
4922;DHT22;16625;53.624;10.106;2023-06-19T07:29:57;20.30;99.90
4922;DHT22;16625;53.624;10.106;2023-06-19T07:32:24;20.30;99.90
4922;DHT22;16625;53.624;10.106;2023-06-19T07:34:51;20.30;99.90
4922;DHT22;16625;53.624;10.106;2023-06-19T07:37:18;20.30;86.60
4922;DHT22;16625;53.624;10.106;2023-06-19T07:39:46;20.30;1.00
4922;DHT22;16625;53.624;10.106;2023-06-19T07:42:13;20.30;1.00
4922;DHT22;16625;53.624;10.106;2023-06-19T07:44:42;20.50;1.00
4922;DHT22;16625;53.624;10.106;2023-06-19T07:47:09;20.60;1.00
4922;DHT22;16625;53.624;10.106;2023-06-19T07:49:37;20.70;1.00
4922;DHT22;16625;53.624;10.106;2023-06-19T07:52:04;20.70;1.00
4922;DHT22;16625;53.624;10.106;2023-06-19T07:54:34;20.80;99.90
4922;DHT22;16625;53.624;10.106;2023-06-19T07:57:01;20.80;1.00
4922;DHT22;16625;53.624;10.106;2023-06-19T07:59:28;20.90;99.90
4922;DHT22;16625;53.624;10.106;2023-06-19T08:01:56;21.00;99.90
4922;DHT22;16625;53.624;10.106;2023-06-19T08:04:23;21.00;99.90
4922;DHT22;16625;53.624;10.106;2023-06-19T08:06:50;21.10;99.90
4922;DHT22;16625;53.624;10.106;2023-06-19T08:09:17;21.20;99.90
4922;DHT22;16625;53.624;10.106;2023-06-19T08:11:44;21.40;99.90
4922;DHT22;16625;53.624;10.106;2023-06-19T08:14:11;21.50;99.90
4922;DHT22;16625;53.624;10.106;2023-06-19T08:16:38;21.80;5.40
4922;DHT22;16625;53.624;10.106;2023-06-19T08:19:06;22.30;1.00
4922;DHT22;16625;53.624;10.106;2023-06-19T08:21:34;22.70;1.00
4922;DHT22;16625;53.624;10.106;2023-06-19T08:24:00;23.10;1.00
4922;DHT22;16625;53.624;10.106;2023-06-19T08:26:28;23.40;1.00
4922;DHT22;16625;53.624;10.106;2023-06-19T08:28:54;23.50;1.00
4922;DHT22;16625;53.624;10.106;2023-06-19T08:31:21;23.60;1.00
4922;DHT22;16625;53.624;10.106;2023-06-19T08:33:52;24.00;99.90
4922;DHT22;16625;53.624;10.106;2023-06-19T08:36:21;24.20;99.90
4922;DHT22;16625;53.624;10.106;2023-06-19T08:38:48;24.50;99.90
4922;DHT22;16625;53.624;10.106;2023-06-19T08:41:17;24.40;99.90
4922;DHT22;16625;53.624;10.106;2023-06-19T08:43:44;24.50;99.90
4922;DHT22;16625;53.624;10.106;2023-06-19T08:46:14;24.60;99.90
4922;DHT22;16625;53.624;10.106;2023-06-19T08:48:41;24.70;99.90
4922;DHT22;16625;53.624;10.106;2023-06-19T08:51:10;24.90;99.90
4922;DHT22;16625;53.624;10.106;2023-06-19T08:53:45;24.70;99.90
4922;DHT22;16625;53.624;10.106;2023-06-19T08:56:12;24.90;99.90
4922;DHT22;16625;53.624;10.106;2023-06-19T08:58:39;25.00;99.90
4922;DHT22;16625;53.624;10.106;2023-06-19T09:01:06;25.20;99.90
4922;DHT22;16625;53.624;10.106;2023-06-19T09:03:34;25.20;99.90
4922;DHT22;16625;53.624;10.106;2023-06-19T09:06:03;25.60;99.90
4922;DHT22;16625;53.624;10.106;2023-06-19T09:08:30;25.80;99.90
4922;DHT22;16625;53.624;10.106;2023-06-19T09:10:59;26.10;99.90
4922;DHT22;16625;53.624;10.106;2023-06-19T09:13:27;26.20;99.90
4922;DHT22;16625;53.624;10.106;2023-06-19T09:16:00;26.50;99.90
4922;DHT22;16625;53.624;10.106;2023-06-19T09:18:29;26.40;99.90
4922;DHT22;16625;53.624;10.106;2023-06-19T09:20:56;26.50;99.90
4922;DHT22;16625;53.624;10.106;2023-06-19T09:23:23;26.60;99.90
4922;DHT22;16625;53.624;10.106;2023-06-19T09:25:52;26.50;99.90
4922;DHT22;16625;53.624;10.106;2023-06-19T09:28:23;26.70;99.90
4922;DHT22;16625;53.624;10.106;2023-06-19T09:30:55;26.80;99.90
4922;DHT22;16625;53.624;10.106;2023-06-19T09:33:22;26.90;99.90
4922;DHT22;16625;53.624;10.106;2023-06-19T09:35:50;26.90;99.90
4922;DHT22;16625;53.624;10.106;2023-06-19T09:38:17;27.10;99.90
4922;DHT22;16625;53.624;10.106;2023-06-19T09:40:46;27.30;99.90
4922;DHT22;16625;53.624;10.106;2023-06-19T09:43:19;27.70;99.90
4922;DHT22;16625;53.624;10.106;2023-06-19T09:45:49;27.60;99.90
4922;DHT22;16625;53.624;10.106;2023-06-19T09:48:19;27.70;99.90
4922;DHT22;16625;53.624;10.106;2023-06-19T09:50:50;27.60;99.90
4922;DHT22;16625;53.624;10.106;2023-06-19T09:53:18;27.70;99.90
4922;DHT22;16625;53.624;10.106;2023-06-19T09:55:46;28.00;99.90
4922;DHT22;16625;53.624;10.106;2023-06-19T09:58:16;28.00;99.90
4922;DHT22;16625;53.624;10.106;2023-06-19T10:00:44;28.00;99.90
4922;DHT22;16625;53.624;10.106;2023-06-19T10:03:13;28.10;99.90
4922;DHT22;16625;53.624;10.106;2023-06-19T10:05:42;28.20;99.90
4922;DHT22;16625;53.624;10.106;2023-06-19T10:08:09;28.60;99.90
4922;DHT22;16625;53.624;10.106;2023-06-19T10:10:46;28.90;99.90
4922;DHT22;16625;53.624;10.106;2023-06-19T10:13:14;28.80;99.90
4922;DHT22;16625;53.624;10.106;2023-06-19T10:15:43;28.70;99.90
4922;DHT22;16625;53.624;10.106;2023-06-19T10:18:26;28.60;99.90
4922;DHT22;16625;53.624;10.106;2023-06-19T10:20:54;28.80;99.90
4922;DHT22;16625;53.624;10.106;2023-06-19T10:23:23;28.80;99.90
4922;DHT22;16625;53.624;10.106;2023-06-19T10:25:56;29.10;99.90
4922;DHT22;16625;53.624;10.106;2023-06-19T10:28:25;29.50;99.90
4922;DHT22;16625;53.624;10.106;2023-06-19T10:30:54;29.40;99.90
4922;DHT22;16625;53.624;10.106;2023-06-19T10:33:22;29.20;99.90
4922;DHT22;16625;53.624;10.106;2023-06-19T10:35:52;29.20;99.90
4922;DHT22;16625;53.624;10.106;2023-06-19T10:38:22;29.30;99.90
4922;DHT22;16625;53.624;10.106;2023-06-19T10:40:49;29.50;99.90
4922;DHT22;16625;53.624;10.106;2023-06-19T10:43:20;29.40;99.90
4922;DHT22;16625;53.624;10.106;2023-06-19T10:45:51;29.30;99.90
4922;DHT22;16625;53.624;10.106;2023-06-19T10:48:25;29.20;99.90
4922;DHT22;16625;53.624;10.106;2023-06-19T10:50:56;29.10;99.90
4922;DHT22;16625;53.624;10.106;2023-06-19T10:53:26;29.00;99.90
4922;DHT22;16625;53.624;10.106;2023-06-19T10:55:56;28.50;99.90
4922;DHT22;16625;53.624;10.106;2023-06-19T10:58:24;28.00;99.90
4922;DHT22;16625;53.624;10.106;2023-06-19T11:00:52;28.20;99.90
4922;DHT22;16625;53.624;10.106;2023-06-19T11:03:20;28.20;99.90
4922;DHT22;16625;53.624;10.106;2023-06-19T11:05:48;28.20;99.90
4922;DHT22;16625;53.624;10.106;2023-06-19T11:08:20;28.20;99.90
4922;DHT22;16625;53.624;10.106;2023-06-19T11:10:48;28.50;99.90
4922;DHT22;16625;53.624;10.106;2023-06-19T11:13:16;28.80;99.90
4922;DHT22;16625;53.624;10.106;2023-06-19T11:15:48;29.20;99.90
4922;DHT22;16625;53.624;10.106;2023-06-19T11:18:17;29.50;99.90
4922;DHT22;16625;53.624;10.106;2023-06-19T11:20:46;29.80;99.90
4922;DHT22;16625;53.624;10.106;2023-06-19T11:23:24;30.00;99.90
4922;DHT22;16625;53.624;10.106;2023-06-19T11:25:51;30.20;99.90
4922;DHT22;16625;53.624;10.106;2023-06-19T11:28:18;30.10;99.90
4922;DHT22;16625;53.624;10.106;2023-06-19T11:30:48;30.00;99.90
4922;DHT22;16625;53.624;10.106;2023-06-19T11:33:18;30.00;99.90
4922;DHT22;16625;53.624;10.106;2023-06-19T11:35:49;30.10;99.90
4922;DHT22;16625;53.624;10.106;2023-06-19T11:38:20;30.30;99.90
4922;DHT22;16625;53.624;10.106;2023-06-19T11:40:53;30.50;99.90
4922;DHT22;16625;53.624;10.106;2023-06-19T11:43:25;30.90;99.90
4922;DHT22;16625;53.624;10.106;2023-06-19T11:45:53;30.60;99.90
4922;DHT22;16625;53.624;10.106;2023-06-19T11:48:24;30.10;99.90
4922;DHT22;16625;53.624;10.106;2023-06-19T11:50:51;30.20;99.90
4922;DHT22;16625;53.624;10.106;2023-06-19T11:53:22;30.10;99.90
4922;DHT22;16625;53.624;10.106;2023-06-19T11:55:50;30.40;99.90
4922;DHT22;16625;53.624;10.106;2023-06-19T11:58:17;30.50;99.90
4922;DHT22;16625;53.624;10.106;2023-06-19T12:00:46;30.70;99.90
4922;DHT22;16625;53.624;10.106;2023-06-19T12:03:13;30.50;99.90
4922;DHT22;16625;53.624;10.106;2023-06-19T12:05:41;30.00;99.90
4922;DHT22;16625;53.624;10.106;2023-06-19T12:08:10;30.30;99.90
4922;DHT22;16625;53.624;10.106;2023-06-19T12:10:40;30.60;99.90
4922;DHT22;16625;53.624;10.106;2023-06-19T12:13:08;30.70;99.90
4922;DHT22;16625;53.624;10.106;2023-06-19T12:15:39;30.60;99.90
4922;DHT22;16625;53.624;10.106;2023-06-19T12:18:11;30.80;99.90
4922;DHT22;16625;53.624;10.106;2023-06-19T12:20:39;30.40;99.90
4922;DHT22;16625;53.624;10.106;2023-06-19T12:23:13;30.20;99.90
4922;DHT22;16625;53.624;10.106;2023-06-19T12:25:46;30.10;99.90
4922;DHT22;16625;53.624;10.106;2023-06-19T12:28:13;29.60;99.90
4922;DHT22;16625;53.624;10.106;2023-06-19T12:30:44;29.40;99.90
4922;DHT22;16625;53.624;10.106;2023-06-19T12:33:11;29.40;99.90
4922;DHT22;16625;53.624;10.106;2023-06-19T12:35:40;29.20;99.90
4922;DHT22;16625;53.624;10.106;2023-06-19T12:38:08;29.10;99.90
4922;DHT22;16625;53.624;10.106;2023-06-19T12:40:35;29.20;99.90
4922;DHT22;16625;53.624;10.106;2023-06-19T12:43:05;29.90;99.90
4922;DHT22;16625;53.624;10.106;2023-06-19T12:45:33;30.00;99.90
4922;DHT22;16625;53.624;10.106;2023-06-19T12:48:11;30.00;99.90
4922;DHT22;16625;53.624;10.106;2023-06-19T12:50:38;30.20;99.90
4922;DHT22;16625;53.624;10.106;2023-06-19T12:53:05;29.90;99.90
4922;DHT22;16625;53.624;10.106;2023-06-19T12:55:37;29.50;99.90
4922;DHT22;16625;53.624;10.106;2023-06-19T12:58:06;29.30;99.90
4922;DHT22;16625;53.624;10.106;2023-06-19T13:00:34;28.70;99.90
4922;DHT22;16625;53.624;10.106;2023-06-19T13:03:01;28.30;99.90
4922;DHT22;16625;53.624;10.106;2023-06-19T13:05:28;28.50;99.90
4922;DHT22;16625;53.624;10.106;2023-06-19T13:07:55;28.90;99.90
4922;DHT22;16625;53.624;10.106;2023-06-19T13:10:22;28.90;99.90
4922;DHT22;16625;53.624;10.106;2023-06-19T13:12:49;29.00;99.90
4922;DHT22;16625;53.624;10.106;2023-06-19T13:15:19;28.50;99.90
4922;DHT22;16625;53.624;10.106;2023-06-19T13:17:46;28.80;99.90
4922;DHT22;16625;53.624;10.106;2023-06-19T13:20:14;28.90;99.90
4922;DHT22;16625;53.624;10.106;2023-06-19T13:22:42;29.10;99.90
4922;DHT22;16625;53.624;10.106;2023-06-19T13:25:10;28.90;99.90
4922;DHT22;16625;53.624;10.106;2023-06-19T13:27:37;28.60;99.90
4922;DHT22;16625;53.624;10.106;2023-06-19T13:30:05;28.70;99.90
4922;DHT22;16625;53.624;10.106;2023-06-19T13:32:34;28.70;99.90
4922;DHT22;16625;53.624;10.106;2023-06-19T13:35:04;28.70;99.90
4922;DHT22;16625;53.624;10.106;2023-06-19T13:37:33;29.00;99.90
4922;DHT22;16625;53.624;10.106;2023-06-19T13:40:01;29.30;99.90
4922;DHT22;16625;53.624;10.106;2023-06-19T13:42:29;28.90;99.90
4922;DHT22;16625;53.624;10.106;2023-06-19T13:44:56;28.30;99.90
4922;DHT22;16625;53.624;10.106;2023-06-19T13:47:24;28.10;99.90
4922;DHT22;16625;53.624;10.106;2023-06-19T13:49:54;27.80;99.90
4922;DHT22;16625;53.624;10.106;2023-06-19T13:52:21;28.20;99.90
4922;DHT22;16625;53.624;10.106;2023-06-19T13:54:49;27.80;99.90
4922;DHT22;16625;53.624;10.106;2023-06-19T13:57:16;28.00;99.90
4922;DHT22;16625;53.624;10.106;2023-06-19T13:59:43;27.50;99.90
4922;DHT22;16625;53.624;10.106;2023-06-19T14:02:10;27.70;99.90
4922;DHT22;16625;53.624;10.106;2023-06-19T14:04:38;27.20;99.90
4922;DHT22;16625;53.624;10.106;2023-06-19T14:07:07;27.30;99.90
4922;DHT22;16625;53.624;10.106;2023-06-19T14:09:34;27.60;99.90
4922;DHT22;16625;53.624;10.106;2023-06-19T14:12:01;27.90;99.90
4922;DHT22;16625;53.624;10.106;2023-06-19T14:14:28;27.40;99.90
4922;DHT22;16625;53.624;10.106;2023-06-19T14:16:55;27.70;99.90
4922;DHT22;16625;53.624;10.106;2023-06-19T14:19:23;28.00;99.90
4922;DHT22;16625;53.624;10.106;2023-06-19T14:21:51;28.10;99.90
4922;DHT22;16625;53.624;10.106;2023-06-19T14:24:19;27.80;99.90
4922;DHT22;16625;53.624;10.106;2023-06-19T14:26:46;27.90;99.90
4922;DHT22;16625;53.624;10.106;2023-06-19T14:29:13;27.70;99.90
4922;DHT22;16625;53.624;10.106;2023-06-19T14:31:44;27.40;99.90
4922;DHT22;16625;53.624;10.106;2023-06-19T14:34:11;27.00;99.90
4922;DHT22;16625;53.624;10.106;2023-06-19T14:36:38;26.80;99.90
4922;DHT22;16625;53.624;10.106;2023-06-19T14:39:05;26.80;99.90
4922;DHT22;16625;53.624;10.106;2023-06-19T14:41:33;26.80;99.90
4922;DHT22;16625;53.624;10.106;2023-06-19T14:44:00;26.70;99.90
4922;DHT22;16625;53.624;10.106;2023-06-19T14:46:27;26.70;99.90
4922;DHT22;16625;53.624;10.106;2023-06-19T14:48:54;26.70;99.90
4922;DHT22;16625;53.624;10.106;2023-06-19T14:51:24;26.90;99.90
4922;DHT22;16625;53.624;10.106;2023-06-19T14:53:51;27.00;99.90
4922;DHT22;16625;53.624;10.106;2023-06-19T14:56:18;27.10;99.90
4922;DHT22;16625;53.624;10.106;2023-06-19T14:58:49;27.00;99.90
4922;DHT22;16625;53.624;10.106;2023-06-19T15:01:16;27.30;99.90
4922;DHT22;16625;53.624;10.106;2023-06-19T15:03:43;27.60;99.90
4922;DHT22;16625;53.624;10.106;2023-06-19T15:06:10;27.20;99.90
4922;DHT22;16625;53.624;10.106;2023-06-19T15:08:37;26.70;99.90
4922;DHT22;16625;53.624;10.106;2023-06-19T15:11:04;26.30;99.90
4922;DHT22;16625;53.624;10.106;2023-06-19T15:13:32;26.40;99.90
4922;DHT22;16625;53.624;10.106;2023-06-19T15:16:00;26.30;99.90
4922;DHT22;16625;53.624;10.106;2023-06-19T15:18:28;26.30;99.90
4922;DHT22;16625;53.624;10.106;2023-06-19T15:20:55;26.40;99.90
4922;DHT22;16625;53.624;10.106;2023-06-19T15:23:21;26.50;99.90
4922;DHT22;16625;53.624;10.106;2023-06-19T15:25:48;26.80;99.90
4922;DHT22;16625;53.624;10.106;2023-06-19T15:28:17;26.80;99.90
4922;DHT22;16625;53.624;10.106;2023-06-19T15:30:44;26.80;99.90
4922;DHT22;16625;53.624;10.106;2023-06-19T15:33:13;27.30;99.90
4922;DHT22;16625;53.624;10.106;2023-06-19T15:35:40;27.40;99.90
4922;DHT22;16625;53.624;10.106;2023-06-19T15:38:06;27.80;99.90
4922;DHT22;16625;53.624;10.106;2023-06-19T15:40:33;28.30;99.90
4922;DHT22;16625;53.624;10.106;2023-06-19T15:43:00;28.10;99.90
4922;DHT22;16625;53.624;10.106;2023-06-19T15:45:27;28.00;99.90
4922;DHT22;16625;53.624;10.106;2023-06-19T15:47:54;28.20;99.90
4922;DHT22;16625;53.624;10.106;2023-06-19T15:50:22;28.30;99.90
4922;DHT22;16625;53.624;10.106;2023-06-19T15:52:49;27.80;99.90
4922;DHT22;16625;53.624;10.106;2023-06-19T15:55:16;28.00;99.90
4922;DHT22;16625;53.624;10.106;2023-06-19T15:57:43;27.60;99.90
4922;DHT22;16625;53.624;10.106;2023-06-19T16:00:11;27.80;99.90
4922;DHT22;16625;53.624;10.106;2023-06-19T16:02:40;28.00;99.90
4922;DHT22;16625;53.624;10.106;2023-06-19T16:05:08;28.10;99.90